Time;durP1;ratioP1;P1;durP2;ratioP2;P2;SDS_P1;SDS_P2;PMS_P1;PMS_P2;Temp;Humidity;BMP_temperature;BMP_pressure;BME280_temperature;BME280_humidity;BME280_pressure;Samples;Min_cycle;Max_cycle;Signal;HPM_P1;HPM_P2
2022/08/06 00:02:31;;;;;;;9.70;3.30;;;;;;;17.15;60.76;102452.53;5058049;28;20094;-56
2022/08/06 00:05:03;;;;;;;7.90;2.90;;;;;;;17.20;60.76;102443.47;5053043;28;20499;-53
2022/08/06 00:07:34;;;;;;;10.15;3.47;;;;;;;17.21;60.87;102445.09;5024187;28;20045;-55
2022/08/06 00:10:15;;;;;;;7.35;2.50;;;;;;;17.16;60.87;102453.38;5044133;28;20033;-56
2022/08/06 00:12:44;;;;;;;6.32;2.40;;;;;;;17.12;61.08;102453.06;5054366;28;20483;-58
2022/08/06 00:15:15;;;;;;;6.05;2.88;;;;;;;17.13;61.07;102462.19;5055810;28;20044;-58
2022/08/06 00:17:47;;;;;;;8.60;2.63;;;;;;;17.10;61.23;102466.31;5074152;28;20107;-57
2022/08/06 00:20:17;;;;;;;11.20;2.70;;;;;;;17.11;61.45;102461.63;5058973;28;20058;-55
2022/08/06 00:22:58;;;;;;;6.10;2.35;;;;;;;17.10;61.61;102466.31;5076510;28;20422;-55
2022/08/06 00:25:28;;;;;;;10.85;2.40;;;;;;;17.12;61.62;102460.50;5076521;28;20071;-57
2022/08/06 00:28:02;;;;;;;10.75;2.65;;;;;;;17.15;61.66;102465.47;5057571;28;20102;-57
2022/08/06 00:30:36;;;;;;;7.05;2.50;;;;;;;17.16;61.75;102469.91;5074020;28;20090;-57
2022/08/06 00:33:04;;;;;;;8.68;2.63;;;;;;;17.15;61.60;102468.22;5074895;28;20483;-56
2022/08/06 00:35:32;;;;;;;11.27;2.65;;;;;;;17.12;61.33;102477.03;5074925;28;20040;-58
2022/08/06 00:38:01;;;;;;;7.70;2.78;;;;;;;17.08;61.50;102478.66;5075038;28;20479;-57
2022/08/06 00:40:30;;;;;;;8.55;2.65;;;;;;;17.06;61.64;102475.38;5075498;28;20048;-58
2022/08/06 00:42:59;;;;;;;8.35;2.88;;;;;;;17.06;61.62;102480.91;5048109;28;20040;-57
2022/08/06 00:45:34;;;;;;;12.40;3.30;;;;;;;17.06;61.75;102484.47;5074000;28;20049;-55
2022/08/06 00:48:13;;;;;;;10.43;3.17;;;;;;;16.97;61.42;102484.16;5062349;28;20045;-57
2022/08/06 00:51:01;;;;;;;11.50;3.35;;;;;;;16.89;61.82;102484.69;5042937;28;20499;-58
2022/08/06 00:53:29;;;;;;;11.35;2.85;;;;;;;16.81;62.16;102479.69;5074648;28;20111;-56
2022/08/06 00:56:01;;;;;;;10.48;3.10;;;;;;;16.74;62.69;102490.09;5054988;28;20191;-55
2022/08/06 00:58:35;;;;;;;10.50;3.30;;;;;;;16.65;62.80;102492.53;5075175;28;20067;-55
2022/08/06 01:01:10;;;;;;;10.57;3.05;;;;;;;16.60;63.01;102492.53;5039279;28;20491;-57
2022/08/06 01:03:47;;;;;;;10.80;3.33;;;;;;;16.58;63.49;102492.78;5057717;28;20048;-57
2022/08/06 01:06:22;;;;;;;9.18;3.03;;;;;;;16.58;63.08;102491.97;5074764;28;20415;-55
2022/08/06 01:09:10;;;;;;;11.98;3.13;;;;;;;16.56;63.61;102494.97;5070987;28;20045;-57
2022/08/06 01:11:38;;;;;;;15.50;3.22;;;;;;;16.54;63.60;102502.66;5039210;28;20047;-56
2022/08/06 01:14:06;;;;;;;11.80;3.15;;;;;;;16.56;63.63;102507.91;5073939;28;20050;-57
2022/08/06 01:16:46;;;;;;;9.57;3.10;;;;;;;16.52;63.32;102502.09;5075608;28;20048;-54
2022/08/06 01:19:24;;;;;;;11.02;3.40;;;;;;;16.49;63.66;102510.06;5074316;28;20039;-59
2022/08/06 01:22:05;;;;;;;10.45;2.83;;;;;;;16.45;63.64;102507.03;5052044;28;20041;-59
2022/08/06 01:25:41;;;;;;;6.20;2.72;;;;;;;16.40;64.38;102507.84;5074279;28;20122;-55
2022/08/06 01:28:25;;;;;;;10.55;3.10;;;;;;;16.39;64.46;102513.59;5008997;28;1074556;-56
2022/08/06 01:31:06;;;;;;;9.65;3.40;;;;;;;16.36;64.69;102508.63;5058620;28;20046;-59
2022/08/06 01:33:41;;;;;;;9.25;2.90;;;;;;;16.32;65.01;102519.31;5055550;28;20499;-53
2022/08/06 01:36:52;;;;;;;9.57;3.33;;;;;;;16.32;65.10;102519.31;5057446;28;20064;-57
2022/08/06 01:39:22;;;;;;;8.32;3.10;;;;;;;16.27;65.07;102518.47;5028852;28;20050;-57
2022/08/06 01:42:10;;;;;;;11.90;3.20;;;;;;;16.26;65.37;102516.78;5066809;28;20503;-59
2022/08/06 01:44:42;;;;;;;12.82;3.10;;;;;;;16.21;65.36;102520.38;5043300;28;20425;-58
2022/08/06 01:47:12;;;;;;;8.00;3.30;;;;;;;16.16;65.82;102517.56;5073816;28;20074;-55
2022/08/06 01:49:49;;;;;;;9.38;3.20;;;;;;;16.15;66.15;102515.91;5074957;28;20045;-58
2022/08/06 01:52:39;;;;;;;9.32;3.55;;;;;;;16.16;66.25;102518.41;5059289;28;20086;-56
2022/08/06 01:55:10;;;;;;;10.15;3.38;;;;;;;16.19;66.12;102520.63;5056879;28;20537;-58
2022/08/06 01:57:50;;;;;;;11.57;3.05;;;;;;;16.19;66.16;102526.13;5056275;28;20051;-58
2022/08/06 02:00:40;;;;;;;10.25;3.70;;;;;;;16.15;65.94;102524.97;5059466;28;20051;-57
2022/08/06 02:03:32;;;;;;;6.57;3.03;;;;;;;16.12;65.98;102522.75;5058214;28;20086;-56
2022/08/06 02:06:40;;;;;;;10.40;2.78;;;;;;;16.10;66.46;102524.94;5074720;28;20043;-58
2022/08/06 02:09:12;;;;;;;8.23;3.05;;;;;;;16.09;66.63;102516.94;5052219;28;20063;-55
2022/08/06 02:12:15;;;;;;;11.02;3.13;;;;;;;16.11;66.20;102518.34;5057068;28;20036;-56
2022/08/06 02:14:57;;;;;;;7.95;2.75;;;;;;;16.10;66.42;102519.44;5057287;28;20048;-57
2022/08/06 02:17:34;;;;;;;12.02;2.97;;;;;;;16.08;66.57;102516.13;5074415;28;20441;-56
2022/08/06 02:20:44;;;;;;;13.25;3.30;;;;;;;16.09;66.50;102522.44;5074719;28;20049;-58
2022/08/06 02:23:23;;;;;;;12.88;2.75;;;;;;;16.08;66.52;102521.63;5056077;28;20045;-54
2022/08/06 02:26:01;;;;;;;13.38;3.05;;;;;;;16.10;66.85;102530.44;5063915;28;20033;-57
2022/08/06 02:28:29;;;;;;;13.32;3.42;;;;;;;16.08;66.86;102526.31;5056338;28;20048;-51
2022/08/06 02:30:58;;;;;;;10.23;3.30;;;;;;;16.02;66.75;102524.59;5056438;28;20495;-51
2022/08/06 02:33:28;;;;;;;13.25;3.30;;;;;;;15.93;67.04;102525.09;5056718;28;20033;-51
2022/08/06 02:36:19;;;;;;;9.02;2.97;;;;;;;15.86;67.45;102524.47;5054073;28;20036;-55
2022/08/06 02:39:07;;;;;;;14.57;3.53;;;;;;;15.82;68.01;102528.84;5053747;28;20491;-56
2022/08/06 02:41:41;;;;;;;9.32;3.30;;;;;;;15.82;68.04;102528.84;5074003;28;20047;-57
2022/08/06 02:44:50;;;;;;;7.88;2.80;;;;;;;15.83;68.11;102529.69;5074213;28;20044;-58
2022/08/06 02:47:41;;;;;;;8.85;3.00;;;;;;;15.84;68.67;102514.84;5072916;28;20491;-57
2022/08/06 02:50:39;;;;;;;9.55;2.67;;;;;;;15.87;68.50;102520.63;5058540;28;20044;-58
2022/08/06 02:53:13;;;;;;;7.03;2.65;;;;;;;15.88;68.37;102532.47;5073379;28;20380;-56
2022/08/06 02:56:03;;;;;;;9.55;2.90;;;;;;;15.88;68.51;102532.47;5057714;28;20040;-56
2022/08/06 02:58:44;;;;;;;7.00;2.80;;;;;;;15.81;68.64;102529.13;5061024;28;20047;-56
2022/08/06 03:01:35;;;;;;;11.52;3.30;;;;;;;15.77;69.18;102531.53;5056931;28;20045;-57
2022/08/06 03:04:10;;;;;;;6.30;2.60;;;;;;;15.73;68.96;102530.44;5057110;28;20047;-53
2022/08/06 03:06:38;;;;;;;10.07;3.30;;;;;;;15.73;69.39;102536.75;5055693;28;20044;-54
2022/08/06 03:09:07;;;;;;;9.57;3.20;;;;;;;15.75;69.68;102531.81;5039228;28;20037;-53
2022/08/06 03:11:36;;;;;;;8.63;3.10;;;;;;;15.77;69.20;102535.13;5073159;28;20556;-53
2022/08/06 03:14:07;;;;;;;7.70;2.90;;;;;;;15.81;69.07;102532.69;5071815;28;20110;-56
2022/08/06 03:16:55;;;;;;;7.10;2.70;;;;;;;15.83;68.85;102529.69;5072899;28;20552;-56
2022/08/06 03:19:26;;;;;;;10.05;2.83;;;;;;;15.84;68.75;102532.16;5055882;28;20462;-55
2022/08/06 03:22:16;;;;;;;8.27;2.33;;;;;;;15.84;69.35;102531.34;5057689;28;20568;-57
2022/08/06 03:25:02;;;;;;;9.30;2.80;;;;;;;15.79;69.21;102542.28;5073449;28;20041;-56
2022/08/06 03:27:31;;;;;;;9.02;2.85;;;;;;;15.75;69.68;102536.47;5055365;28;20491;-53
2022/08/06 03:30:12;;;;;;;9.15;2.85;;;;;;;15.74;69.81;102538.41;5035043;28;20040;-55
2022/08/06 03:33:07;;;;;;;6.53;2.50;;;;;;;15.75;69.53;102541.97;5073690;28;20041;-54
2022/08/06 03:35:56;;;;;;;8.67;3.13;;;;;;;15.68;69.69;102541.31;5058705;28;20097;-57
2022/08/06 03:38:28;;;;;;;7.10;3.00;;;;;;;15.62;69.82;102545.94;5036616;28;20475;-55
2022/08/06 03:40:57;;;;;;;6.95;2.78;;;;;;;15.58;70.39;102539.28;5053818;28;20039;-56
2022/08/06 03:43:28;;;;;;;7.47;2.90;;;;;;;15.57;70.51;102547.81;5056154;28;20047;-55
2022/08/06 03:46:27;;;;;;;10.77;2.92;;;;;;;15.53;70.23;102548.31;5058607;28;20044;-55
2022/08/06 03:48:58;;;;;;;10.10;3.05;;;;;;;15.51;70.67;102550.53;5054553;28;20048;-58
2022/08/06 03:51:28;;;;;;;8.27;2.88;;;;;;;15.49;70.33;102549.94;5035023;28;20037;-56
2022/08/06 03:54:20;;;;;;;9.18;2.95;;;;;;;15.45;71.28;102550.72;5069486;28;20037;-56
2022/08/06 03:57:02;;;;;;;8.15;2.50;;;;;;;15.42;71.21;102551.25;5056884;28;20040;-56
2022/08/06 03:59:42;;;;;;;9.38;2.72;;;;;;;15.38;71.29;102559.16;5071894;28;20036;-58
2022/08/06 04:02:44;;;;;;;12.77;3.00;;;;;;;15.32;71.38;102563.78;5072027;28;20040;-59
2022/08/06 04:05:20;;;;;;;9.05;3.05;;;;;;;15.30;71.72;102565.94;5053158;28;20450;-57
2022/08/06 04:07:52;;;;;;;11.35;2.88;;;;;;;15.28;71.75;102573.59;5072631;28;20041;-59
2022/08/06 04:10:44;;;;;;;8.68;3.25;;;;;;;15.29;71.42;102572.50;5037312;28;20526;-58
2022/08/06 04:13:25;;;;;;;9.35;2.70;;;;;;;15.25;71.76;102573.28;5056607;28;20119;-57
2022/08/06 04:16:14;;;;;;;7.60;2.67;;;;;;;15.20;72.17;102576.81;5057991;28;20048;-54
2022/08/06 04:18:57;;;;;;;7.75;3.15;;;;;;;15.17;72.65;102574.56;5055070;28;20094;-56
2022/08/06 04:21:25;;;;;;;9.80;3.10;;;;;;;15.18;72.95;102581.72;5072957;28;20529;-59
2022/08/06 04:24:14;;;;;;;11.60;3.10;;;;;;;15.23;72.82;102579.03;5060839;28;20045;-57
2022/08/06 04:26:44;;;;;;;9.40;2.65;;;;;;;15.26;72.57;102575.78;5072385;28;20049;-59
2022/08/06 04:29:18;;;;;;;9.15;2.67;;;;;;;15.26;72.64;102581.25;5072026;28;20029;-58
2022/08/06 04:31:50;;;;;;;7.47;2.90;;;;;;;15.25;72.54;102582.34;5070775;28;20048;-58
2022/08/06 04:34:38;;;;;;;8.43;2.88;;;;;;;15.27;72.64;102593.06;5072008;28;20049;-55
2022/08/06 04:37:26;;;;;;;8.40;2.83;;;;;;;15.29;73.20;102594.47;5072395;28;20058;-55
2022/08/06 04:40:07;;;;;;;8.80;2.85;;;;;;;15.30;72.89;102593.41;5056045;28;20045;-58
2022/08/06 04:42:42;;;;;;;8.18;2.72;;;;;;;15.34;72.84;102593.69;5053149;28;20407;-59
2022/08/06 04:45:11;;;;;;;8.95;3.20;;;;;;;15.35;72.78;102595.38;5035090;28;20507;-59
2022/08/06 04:47:59;;;;;;;8.20;3.00;;;;;;;15.32;72.68;102596.72;5063914;28;20040;-58
2022/08/06 04:50:31;;;;;;;6.47;2.72;;;;;;;15.27;73.26;102610.41;5055143;28;20116;-58
2022/08/06 04:53:11;;;;;;;11.30;2.80;;;;;;;15.28;73.11;102609.31;5059661;28;20128;-58
2022/08/06 04:55:56;;;;;;;13.60;3.60;;;;;;;15.29;73.64;102602.72;5077126;28;20047;-57
2022/08/06 04:58:30;;;;;;;8.18;3.00;;;;;;;15.29;73.12;102615.63;5073881;28;20032;-59
2022/08/06 05:01:00;;;;;;;9.60;3.50;;;;;;;15.24;73.43;102616.38;5072387;28;20123;-59
2022/08/06 05:03:37;;;;;;;7.22;3.10;;;;;;;15.23;73.71;102609.25;5059535;28;20052;-59
2022/08/06 05:06:43;;;;;;;14.65;3.17;;;;;;;15.24;73.88;102612.81;5075889;28;20048;-59
2022/08/06 05:09:18;;;;;;;8.98;2.78;;;;;;;15.26;74.04;102619.72;5072136;28;20128;-59
2022/08/06 05:12:04;;;;;;;9.77;3.83;;;;;;;15.29;73.57;102619.19;5058721;28;20150;-58
2022/08/06 05:14:56;;;;;;;11.73;3.28;;;;;;;15.30;73.91;102620.88;5057880;28;20047;-58
2022/08/06 05:17:29;;;;;;;11.73;3.10;;;;;;;15.27;74.11;102626.88;5063116;28;20032;-56
2022/08/06 05:20:20;;;;;;;12.93;3.50;;;;;;;15.18;74.94;102622.91;5057299;28;20040;-55
2022/08/06 05:23:19;;;;;;;9.20;3.20;;;;;;;15.13;75.42;102628.34;5076063;28;20048;-56
2022/08/06 05:25:48;;;;;;;8.45;2.95;;;;;;;15.10;75.79;102635.19;5076387;28;20044;-56
2022/08/06 05:28:24;;;;;;;6.60;2.85;;;;;;;15.04;76.53;102640.84;5075648;28;20052;-55
2022/08/06 05:30:55;;;;;;;10.00;2.90;;;;;;;15.05;76.84;102628.75;5058441;28;20052;-53
2022/08/06 05:33:31;;;;;;;9.07;2.83;;;;;;;15.06;76.95;102636.75;5057766;28;20439;-58
2022/08/06 05:36:06;;;;;;;10.60;2.97;;;;;;;15.07;77.21;102634.84;5076060;28;20049;-56
2022/08/06 05:38:40;;;;;;;7.22;3.00;;;;;;;15.10;77.48;102637.91;5057864;28;20470;-57
2022/08/06 05:41:25;;;;;;;9.30;3.42;;;;;;;15.18;77.30;102650.38;5059932;28;20044;-57
2022/08/06 05:43:58;;;;;;;8.13;3.40;;;;;;;15.25;77.02;102656.50;5075089;28;20059;-57
2022/08/06 05:46:36;;;;;;;9.00;3.63;;;;;;;15.32;76.47;102653.53;5069526;28;20072;-58
2022/08/06 05:49:08;;;;;;;6.45;3.25;;;;;;;15.37;76.67;102661.03;5057319;28;20052;-56
2022/08/06 05:52:01;;;;;;;11.13;3.20;;;;;;;15.40;76.48;102655.88;5074830;28;20052;-57
2022/08/06 05:54:35;;;;;;;10.52;3.67;;;;;;;15.40;76.72;102653.13;5074770;28;20044;-58
2022/08/06 05:57:29;;;;;;;9.90;2.97;;;;;;;15.45;76.62;102653.19;5057143;28;20049;-59
2022/08/06 06:00:15;;;;;;;9.48;3.08;;;;;;;15.49;76.50;102656.22;5074073;28;20127;-58
2022/08/06 06:03:06;;;;;;;9.70;2.93;;;;;;;15.54;76.75;102659.06;4371005;28;10000429;-58
2022/08/06 06:05:34;;;;;;;10.35;3.17;;;;;;;15.54;77.01;102665.38;5070683;28;20059;-57
2022/08/06 06:08:22;;;;;;;13.68;3.47;;;;;;;15.57;77.14;102668.72;5054343;28;20036;-57
2022/08/06 06:11:07;;;;;;;10.13;3.00;;;;;;;15.56;77.47;102659.63;5070523;28;20047;-59
2022/08/06 06:13:39;;;;;;;12.15;3.20;;;;;;;15.56;77.71;102662.34;5070303;28;20051;-60
2022/08/06 06:16:47;;;;;;;9.20;2.95;;;;;;;15.48;77.65;102660.06;5055336;28;20044;-57
2022/08/06 06:19:56;;;;;;;8.27;2.97;;;;;;;15.45;78.02;102661.41;5060365;28;20052;-58
2022/08/06 06:22:52;;;;;;;13.25;3.47;;;;;;;15.45;78.26;102661.41;5065945;28;20044;-56
2022/08/06 06:25:26;;;;;;;10.40;3.28;;;;;;;15.49;78.57;102667.22;5067645;28;20079;-58
2022/08/06 06:28:13;;;;;;;10.57;3.20;;;;;;;15.50;78.35;102668.91;5051041;28;20064;-57
2022/08/06 06:31:30;;;;;;;9.93;3.13;;;;;;;15.52;77.85;102664.81;5070616;28;20111;-57
2022/08/06 06:34:32;;;;;;;12.00;3.67;;;;;;;15.56;78.09;102667.84;5057949;28;20552;-57
2022/08/06 06:37:02;;;;;;;13.75;3.42;;;;;;;15.62;77.74;102658.59;5045139;28;20051;-58
2022/08/06 06:39:38;;;;;;;8.43;2.92;;;;;;;15.69;77.34;102670.22;5033157;28;20033;-52
2022/08/06 06:42:42;;;;;;;9.10;3.03;;;;;;;15.75;76.81;102666.50;5049058;28;20052;-58
2022/08/06 06:45:37;;;;;;;8.45;3.20;;;;;;;15.80;76.49;102665.69;5051013;28;20048;-58
2022/08/06 06:48:46;;;;;;;10.27;3.00;;;;;;;15.84;76.86;102664.09;5033496;28;20483;-60
2022/08/06 06:51:32;;;;;;;13.07;2.97;;;;;;;15.86;76.53;102666.59;5053734;28;20499;-59
2022/08/06 06:54:32;;;;;;;7.57;2.83;;;;;;;15.86;76.08;102669.34;5073503;28;20040;-60
2022/08/06 06:57:06;;;;;;;9.32;2.90;;;;;;;15.90;76.32;102671.31;5056223;28;20116;-61
2022/08/06 06:59:42;;;;;;;11.40;3.40;;;;;;;15.94;76.18;102679.88;5056559;28;20057;-60
2022/08/06 07:02:34;;;;;;;10.55;3.28;;;;;;;15.97;77.15;102676.63;5058399;28;20052;-59
2022/08/06 07:05:06;;;;;;;5.97;2.60;;;;;;;15.99;77.19;102666.16;5056341;28;20491;-61
2022/08/06 07:07:38;;;;;;;9.50;2.97;;;;;;;16.02;77.08;102676.66;5056145;28;20068;-60
2022/08/06 07:10:08;;;;;;;7.00;2.50;;;;;;;16.02;74.89;102681.31;5073098;28;20132;-59
2022/08/06 07:12:39;;;;;;;7.60;2.53;;;;;;;16.01;74.95;102675.00;5055786;28;20051;-56
2022/08/06 07:15:08;;;;;;;5.35;2.53;;;;;;;16.04;74.89;102682.72;5073334;28;20131;-58
2022/08/06 07:17:46;;;;;;;7.63;2.55;;;;;;;16.04;74.78;102682.72;5073142;28;20044;-59
2022/08/06 07:20:20;;;;;;;11.15;2.63;;;;;;;16.08;74.64;102691.28;5056109;28;20032;-59
2022/08/06 07:22:55;;;;;;;6.55;2.20;;;;;;;16.09;74.38;102682.78;5056773;28;20414;-59
2022/08/06 07:25:45;;;;;;;8.77;2.97;;;;;;;16.13;74.74;102688.59;5057478;28;20500;-59
2022/08/06 07:28:25;;;;;;;8.40;3.00;;;;;;;16.16;74.98;102686.16;5072751;28;20410;-51
2022/08/06 07:30:57;;;;;;;4.35;2.05;;;;;;;16.19;72.89;102688.38;5055604;28;20094;-53
2022/08/06 07:33:38;;;;;;;8.55;2.42;;;;;;;16.20;71.49;102680.97;5052760;28;20453;-56
2022/08/06 07:36:31;;;;;;;6.85;2.33;;;;;;;16.22;70.65;102686.22;5061624;28;20541;-59
2022/08/06 07:39:11;;;;;;;8.95;2.55;;;;;;;16.27;72.33;102689.00;5053501;28;20040;-56
2022/08/06 07:41:43;;;;;;;7.38;2.55;;;;;;;16.30;72.87;102688.47;5047649;28;20494;-58
2022/08/06 07:44:34;;;;;;;8.05;2.25;;;;;;;16.35;71.22;102688.50;5055828;28;20047;-61
2022/08/06 07:47:27;;;;;;;6.10;1.98;;;;;;;16.38;70.90;102697.09;5070901;28;20048;-55
2022/08/06 07:50:11;;;;;;;6.57;2.17;;;;;;;16.42;70.76;102707.56;5056447;28;20090;-60
2022/08/06 07:52:43;;;;;;;5.72;1.85;;;;;;;16.43;69.08;102698.22;5038438;28;20499;-56
2022/08/06 07:55:13;;;;;;;4.47;1.58;;;;;;;16.42;67.48;102702.88;5053538;28;20032;-56
2022/08/06 07:57:42;;;;;;;9.68;2.00;;;;;;;16.42;66.88;102702.88;5072012;28;20048;-60
2022/08/06 08:00:25;;;;;;;6.82;1.90;;;;;;;16.45;67.00;102702.38;5071796;28;20055;-60
2022/08/06 08:06:18;;;;;;;4.93;1.43;;;;;;;16.56;65.42;102706.03;5046240;28;20056;-60
2022/08/06 08:09:14;;;;;;;7.70;1.90;;;;;;;16.60;64.93;102713.50;5066059;28;20115;-58
2022/08/06 08:11:56;;;;;;;5.63;1.55;;;;;;;16.63;63.08;102723.16;5051305;28;20040;-57
2022/08/06 08:14:45;;;;;;;5.80;1.48;;;;;;;16.61;62.98;102706.91;5034348;28;20036;-60
2022/08/06 08:17:17;;;;;;;6.47;1.55;;;;;;;16.60;63.87;102710.75;5054064;28;20036;-60
2022/08/06 08:20:06;;;;;;;4.03;1.20;;;;;;;16.64;64.34;102710.22;5072666;28;20052;-60
2022/08/06 08:22:47;;;;;;;4.75;1.40;;;;;;;16.67;64.53;102712.44;5072222;28;20032;-59
2022/08/06 08:25:18;;;;;;;4.03;2.00;;;;;;;16.70;64.24;102714.69;5071066;28;20037;-59
2022/08/06 08:28:07;;;;;;;5.25;1.50;;;;;;;16.74;62.99;102713.06;5055949;28;20053;-62
2022/08/06 08:30:42;;;;;;;3.10;1.30;;;;;;;16.81;62.63;102714.53;5054940;28;20499;-53
2022/08/06 08:33:11;;;;;;;4.25;1.17;;;;;;;16.90;62.77;102714.03;5053440;28;20042;-58
2022/08/06 08:35:46;;;;;;;5.78;1.50;;;;;;;16.96;62.11;102713.00;5072205;28;20521;-57
2022/08/06 08:38:31;;;;;;;6.82;1.40;;;;;;;17.00;62.02;102714.97;5030864;28;20048;-58
2022/08/06 08:41:08;;;;;;;5.07;1.33;;;;;;;17.04;60.75;102715.25;5076309;28;20037;-59
2022/08/06 08:43:44;;;;;;;4.47;1.10;;;;;;;17.08;61.40;102710.03;5076045;28;20036;-59
2022/08/06 08:46:38;;;;;;;2.85;1.27;;;;;;;17.16;59.81;102715.03;5061330;28;20082;-55
2022/08/06 08:49:39;;;;;;;4.53;1.33;;;;;;;17.18;59.42;102715.63;5060994;28;20044;-56
2022/08/06 08:52:16;;;;;;;3.35;1.20;;;;;;;17.21;59.03;102707.63;5076342;28;20060;-57
2022/08/06 08:54:50;;;;;;;2.92;0.98;;;;;;;17.30;57.58;102724.50;5058109;28;20044;-57
2022/08/06 08:57:19;;;;;;;6.00;1.38;;;;;;;17.34;58.28;102720.13;5076047;28;20138;-56
2022/08/06 09:00:08;;;;;;;5.47;1.83;;;;;;;17.37;58.14;102714.06;5061564;28;20040;-56
2022/08/06 09:02:38;;;;;;;4.50;1.48;;;;;;;17.38;55.26;102714.88;5058939;28;20406;-54
2022/08/06 09:05:15;;;;;;;5.85;1.40;;;;;;;17.40;54.72;102715.47;5075879;28;20044;-55
2022/08/06 09:07:43;;;;;;;4.55;1.40;;;;;;;17.41;54.66;102728.13;5058390;28;20047;-54
2022/08/06 09:10:28;;;;;;;3.13;1.27;;;;;;;17.45;54.30;102716.31;5075952;28;20457;-57
2022/08/06 09:13:03;;;;;;;2.10;1.20;;;;;;;17.50;54.61;102720.19;5058596;28;20037;-55
2022/08/06 09:15:51;;;;;;;3.78;1.15;;;;;;;17.60;55.92;102726.56;5060509;28;20045;-58
2022/08/06 09:18:23;;;;;;;3.53;1.17;;;;;;;17.67;56.08;102731.84;5058146;28;20487;-56
2022/08/06 09:20:54;;;;;;;4.80;1.30;;;;;;;17.75;55.67;102738.75;5058468;28;20044;-57
2022/08/06 09:23:24;;;;;;;3.88;1.63;;;;;;;17.77;55.60;102733.81;5075369;28;20068;-53
2022/08/06 09:25:56;;;;;;;4.75;1.67;;;;;;;17.77;55.92;102740.13;5075755;28;20134;-56
2022/08/06 09:28:34;;;;;;;3.63;1.23;;;;;;;17.74;55.98;102735.16;5076040;28;20053;-60
2022/08/06 09:31:15;;;;;;;3.40;1.15;;;;;;;17.74;56.39;102732.41;5076483;28;20119;-53
2022/08/06 09:34:05;;;;;;;5.77;1.33;;;;;;;17.78;57.44;102733.53;5076023;28;20041;-59
2022/08/06 09:36:54;;;;;;;2.72;1.00;;;;;;;17.74;57.20;102729.66;5041278;28;20048;-59
2022/08/06 09:39:35;;;;;;;4.88;1.42;;;;;;;17.71;57.06;102732.97;5058615;28;20124;-59
2022/08/06 09:42:43;;;;;;;4.90;1.77;;;;;;;17.77;56.83;102740.13;5060846;28;20051;-57
2022/08/06 09:45:13;;;;;;;3.45;1.13;;;;;;;17.80;54.06;102738.78;5075771;28;20041;-58
2022/08/06 09:47:48;;;;;;;3.42;1.05;;;;;;;17.82;53.34;102729.19;5074860;28;20041;-60
2022/08/06 09:50:38;;;;;;;2.97;1.25;;;;;;;17.85;54.01;102739.66;5057261;28;20045;-56
2022/08/06 09:53:13;;;;;;;4.22;1.30;;;;;;;17.90;53.62;102735.28;5075436;28;20052;-56
2022/08/06 09:55:49;;;;;;;2.67;0.98;;;;;;;17.95;53.70;102740.81;5055799;28;20132;-58
2022/08/06 09:58:41;;;;;;;3.83;1.30;;;;;;;17.99;54.39;102739.16;5075034;28;20040;-61
2022/08/06 10:01:15;;;;;;;4.07;1.25;;;;;;;18.04;54.20;102745.53;5077053;28;20043;-57
2022/08/06 10:03:57;;;;;;;4.13;1.33;;;;;;;18.11;53.45;102739.72;5058734;28;20568;-59
2022/08/06 10:06:35;;;;;;;3.72;1.23;;;;;;;18.19;53.30;102738.38;5074797;28;20064;-58
2022/08/06 10:09:11;;;;;;;3.58;1.55;;;;;;;18.25;53.05;102740.03;5075036;28;20087;-58
2022/08/06 10:11:59;;;;;;;3.75;0.95;;;;;;;18.22;52.64;102735.06;5059319;28;20040;-58
2022/08/06 10:14:32;;;;;;;4.55;0.93;;;;;;;18.26;52.92;102745.28;5057052;28;20514;-58
2022/08/06 10:17:07;;;;;;;4.40;1.38;;;;;;;18.25;51.51;102738.09;5074260;28;20041;-56
2022/08/06 10:19:36;;;;;;;5.55;1.30;;;;;;;18.19;51.08;102738.38;5074448;28;20076;-59
2022/08/06 10:22:12;;;;;;;3.60;1.20;;;;;;;18.16;50.97;102737.00;5074189;28;20043;-60
2022/08/06 10:24:45;;;;;;;4.53;1.02;;;;;;;18.16;50.90;102734.25;5056435;28;20045;-56
2022/08/06 10:27:26;;;;;;;6.25;1.55;;;;;;;18.19;50.84;102736.44;5056708;28;20404;-58
2022/08/06 10:30:08;;;;;;;3.28;1.20;;;;;;;18.24;49.40;102728.19;5074065;28;20052;-56
2022/08/06 10:32:53;;;;;;;2.30;0.95;;;;;;;18.31;49.05;102723.22;5074488;28;20056;-56
2022/08/06 10:35:23;;;;;;;1.05;0.50;;;;;;;18.39;48.79;102709.97;5056510;28;20048;-57
2022/08/06 10:37:58;;;;;;;5.18;1.23;;;;;;;18.40;49.06;102712.47;5073656;28;20041;-57
2022/08/06 10:40:31;;;;;;;3.58;1.30;;;;;;;18.44;49.00;102710.81;5073965;28;20093;-56
2022/08/06 10:43:03;;;;;;;3.22;1.02;;;;;;;18.48;48.86;102711.09;5073809;28;20040;-55
2022/08/06 10:45:33;;;;;;;2.95;0.98;;;;;;;18.53;48.31;102697.28;5056293;28;20072;-58
2022/08/06 10:48:17;;;;;;;4.15;1.30;;;;;;;18.56;46.93;102707.78;5058321;28;20072;-58
2022/08/06 10:51:06;;;;;;;2.13;0.80;;;;;;;18.52;47.55;102707.50;5073536;28;20480;-58
2022/08/06 10:53:36;;;;;;;4.32;1.05;;;;;;;18.49;47.56;102709.97;5055895;28;20037;-60
2022/08/06 10:56:26;;;;;;;1.08;0.70;;;;;;;18.39;46.22;102704.47;5073393;28;20037;-59
2022/08/06 10:58:59;;;;;;;1.75;0.80;;;;;;;18.40;47.11;102703.34;5054975;28;20040;-60
2022/08/06 11:01:44;;;;;;;4.57;1.20;;;;;;;18.46;47.50;102693.97;5073647;28;20049;-59
2022/08/06 11:04:16;;;;;;;4.53;1.27;;;;;;;18.56;46.19;102701.44;5056226;28;20043;-58
2022/08/06 11:07:08;;;;;;;1.75;0.80;;;;;;;18.67;45.74;102706.69;5056156;28;20048;-58
2022/08/06 11:10:01;;;;;;;1.48;0.70;;;;;;;18.73;46.43;102697.28;5072945;28;20044;-56
2022/08/06 11:12:53;;;;;;;2.45;0.95;;;;;;;18.76;47.11;102700.59;5063035;28;20094;-59
2022/08/06 11:15:21;;;;;;;3.45;0.88;;;;;;;18.73;46.41;102685.41;5055597;28;20510;-56
2022/08/06 11:17:51;;;;;;;2.88;1.00;;;;;;;18.71;46.69;102688.47;5072403;28;20508;-58
2022/08/06 11:20:33;;;;;;;1.85;0.88;;;;;;;18.67;46.31;102695.63;5073216;28;20064;-58
2022/08/06 11:23:04;;;;;;;3.78;1.00;;;;;;;18.64;45.35;102698.97;5073204;28;20040;-59
2022/08/06 11:25:38;;;;;;;;;;;;;;;18.60;46.28;102695.09;5055883;28;20074;-53
2022/08/06 11:28:07;;;;;;;1.63;0.90;;;;;;;18.63;44.38;102691.75;5072616;28;20549;-58
2022/08/06 11:30:45;;;;;;;5.13;1.05;;;;;;;18.77;44.22;102682.97;5073259;28;20394;-58
2022/08/06 11:33:33;;;;;;;1.50;0.88;;;;;;;18.87;44.34;102680.19;5055279;28;20120;-57
2022/08/06 11:36:23;;;;;;;1.95;0.80;;;;;;;18.92;43.67;102675.47;5072510;28;20036;-57
2022/08/06 11:38:53;;;;;;;3.25;1.15;;;;;;;18.92;43.63;102682.94;5072741;28;20518;-56
2022/08/06 11:41:29;;;;;;;3.08;0.90;;;;;;;18.95;42.83;102671.31;5073255;28;20090;-55
2022/08/06 11:44:18;;;;;;;2.53;0.90;;;;;;;19.07;41.67;102674.63;5057936;28;20055;-55
2022/08/06 11:47:11;;;;;;;1.85;0.88;;;;;;;19.19;41.56;102673.47;5072449;28;20049;-58
2022/08/06 11:49:47;;;;;;;1.80;0.93;;;;;;;19.24;41.74;102670.69;5060145;28;20083;-54
2022/08/06 11:52:37;;;;;;;1.30;1.08;;;;;;;19.28;41.69;102666.25;5072531;28;20487;-56
2022/08/06 11:55:10;;;;;;;1.50;0.77;;;;;;;19.31;38.05;102668.44;5072462;28;20079;-55
2022/08/06 11:57:48;;;;;;;2.72;0.98;;;;;;;19.36;38.89;102668.41;5072452;28;20120;-60
2022/08/06 12:00:22;;;;;;;3.22;1.08;;;;;;;19.48;40.27;102660.66;5055248;28;20110;-59
2022/08/06 12:02:53;;;;;;;2.78;1.10;;;;;;;19.56;39.88;102665.56;5072471;28;20052;-59
2022/08/06 12:05:23;;;;;;;3.63;1.40;;;;;;;19.60;41.37;102668.59;5055497;28;20499;-58
2022/08/06 12:08:10;;;;;;;1.58;1.20;;;;;;;19.51;42.98;102667.56;5071832;28;20041;-59
2022/08/06 12:11:24;;;;;;;2.70;0.98;;;;;;;19.37;43.35;102661.78;5063426;28;20055;-57
2022/08/06 12:13:52;;;;;;;2.70;1.10;;;;;;;19.27;42.82;102657.13;5076805;28;20094;-58
2022/08/06 12:16:40;;;;;;;2.38;0.90;;;;;;;19.30;42.59;102664.84;5061590;28;20036;-58
2022/08/06 12:19:21;;;;;;;4.45;0.88;;;;;;;19.43;42.46;102660.66;5076696;28;20127;-58
2022/08/06 12:21:54;;;;;;;1.83;0.73;;;;;;;19.54;41.78;102655.91;5076497;28;20132;-57
2022/08/06 12:24:27;;;;;;;3.22;1.13;;;;;;;19.63;40.19;102648.69;5076765;28;20064;-58
2022/08/06 12:27:16;;;;;;;2.35;0.70;;;;;;;19.68;39.49;102650.63;5075746;28;20495;-57
2022/08/06 12:29:58;;;;;;;2.80;1.30;;;;;;;19.72;39.87;102637.84;5076682;28;20472;-60